createdAt,value
2018-01-15T00:01:52.164Z,28.98
2018-01-15T00:04:20.113Z,31.08
2018-01-15T00:06:48.890Z,28.48
2018-01-15T00:09:16.913Z,33.50
2018-01-15T00:11:45.066Z,35.42
2018-01-15T00:14:13.001Z,32.65
2018-01-15T00:16:41.105Z,25.30
2018-01-15T00:19:09.068Z,27.73
2018-01-15T00:21:37.090Z,31.27
2018-01-15T00:24:05.141Z,31.12
2018-01-15T00:26:33.057Z,30.23
2018-01-15T00:29:01.105Z,28.48
2018-01-15T00:31:29.149Z,31.83
2018-01-15T00:33:57.081Z,26.95
2018-01-15T00:36:25.021Z,29.77
2018-01-15T00:38:53.887Z,29.90
2018-01-15T00:41:21.805Z,27.00
2018-01-15T00:43:49.857Z,27.87
2018-01-15T00:46:17.863Z,29.33
2018-01-15T00:48:45.818Z,33.80
2018-01-15T00:51:13.789Z,27.75
2018-01-15T00:53:41.713Z,32.05
2018-01-15T00:56:09.657Z,28.33
2018-01-15T00:58:37.778Z,27.73
2018-01-15T01:01:06.039Z,27.90
2018-01-15T01:03:34.033Z,28.42
2018-01-15T01:06:02.008Z,31.05
2018-01-15T01:08:29.936Z,29.85
2018-01-15T01:10:57.860Z,26.67
2018-01-15T01:13:25.805Z,27.73
2018-01-15T01:15:53.783Z,27.65
2018-01-15T01:18:21.692Z,29.30
2018-01-15T01:20:49.724Z,31.77
2018-01-15T01:23:17.681Z,30.85
2018-01-15T01:25:45.604Z,28.95
2018-01-15T01:28:13.542Z,31.58
2018-01-15T01:30:41.564Z,24.67
2018-01-15T01:33:09.485Z,32.67
2018-01-15T01:35:37.637Z,31.83
2018-01-15T01:38:05.586Z,31.30
2018-01-15T01:40:33.481Z,29.45
2018-01-15T01:43:02.091Z,34.63
2018-01-15T01:45:30.150Z,31.23
2018-01-15T01:47:58.706Z,28.73
2018-01-15T01:50:26.608Z,30.10
2018-01-15T01:52:54.733Z,28.98
2018-01-15T01:55:22.651Z,27.42
2018-01-15T01:57:50.597Z,28.25
2018-01-15T02:00:18.565Z,28.62
2018-01-15T02:02:46.497Z,29.83
2018-01-15T02:05:14.424Z,27.25
2018-01-15T02:07:42.508Z,34.45
2018-01-15T02:10:10.425Z,29.05
2018-01-15T02:12:39.193Z,33.38
2018-01-15T02:15:07.130Z,31.77
2018-01-15T02:17:35.074Z,27.65
2018-01-15T02:20:03.125Z,30.60
2018-01-15T02:22:31.122Z,39.63
2018-01-15T02:24:59.264Z,32.25
2018-01-15T02:27:27.182Z,28.02
2018-01-15T02:29:55.123Z,31.73
2018-01-15T02:32:23.118Z,28.33
2018-01-15T02:34:51.069Z,30.75
2018-01-15T02:37:19.006Z,28.73
2018-01-15T02:39:47.353Z,30.85
2018-01-15T02:42:15.278Z,28.60
2018-01-15T02:44:43.217Z,30.58
2018-01-15T02:47:11.142Z,28.33
2018-01-15T02:49:39.093Z,29.27
2018-01-15T02:52:07.038Z,25.48
2018-01-15T02:54:35.046Z,28.40
2018-01-15T02:57:02.979Z,31.17
2018-01-15T02:59:30.920Z,30.98
2018-01-15T03:01:58.816Z,30.60
2018-01-15T03:04:26.804Z,26.05
2018-01-15T03:06:54.743Z,30.60
2018-01-15T03:09:22.705Z,26.33
2018-01-15T03:11:50.631Z,29.20
2018-01-15T03:14:18.563Z,31.95
2018-01-15T03:16:46.491Z,31.50
2018-01-15T03:19:14.437Z,27.00
2018-01-15T03:21:42.368Z,27.70
2018-01-15T03:24:10.316Z,34.53
2018-01-15T03:26:38.260Z,29.80
2018-01-15T03:29:06.241Z,28.08
2018-01-15T03:31:34.345Z,32.97
2018-01-15T03:34:02.534Z,34.00
2018-01-15T03:36:30.529Z,27.52
2018-01-15T03:38:58.581Z,33.10
2018-01-15T03:41:27.338Z,27.85
2018-01-15T03:43:55.253Z,26.17
2018-01-15T03:46:23.400Z,25.95
2018-01-15T03:48:51.502Z,34.33
2018-01-15T03:51:19.470Z,32.83
2018-01-15T03:53:47.713Z,30.10
2018-01-15T03:56:15.646Z,30.15
2018-01-15T03:58:43.596Z,27.33
2018-01-15T04:01:11.790Z,31.02
2018-01-15T04:03:39.796Z,32.85
2018-01-15T04:06:07.737Z,28.25
2018-01-15T04:08:35.666Z,29.55
2018-01-15T04:11:03.589Z,29.35
2018-01-15T04:13:31.554Z,30.02
2018-01-15T04:15:59.582Z,26.50
2018-01-15T04:18:27.500Z,29.92
2018-01-15T04:20:56.055Z,31.65
2018-01-15T04:23:24.001Z,30.92
2018-01-15T04:25:51.909Z,26.05
2018-01-15T04:28:19.949Z,33.58
2018-01-15T04:30:47.877Z,29.10
2018-01-15T04:33:15.852Z,35.03
2018-01-15T04:35:43.780Z,34.63
2018-01-15T04:38:11.722Z,27.15
2018-01-15T04:40:39.652Z,28.73
2018-01-15T04:43:07.793Z,29.42
2018-01-15T04:45:35.717Z,34.67
2018-01-15T04:48:03.675Z,28.02
2018-01-15T04:50:31.616Z,29.75
2018-01-15T04:52:59.544Z,31.17
2018-01-15T04:55:27.512Z,31.10
2018-01-15T04:57:56.053Z,28.90
2018-01-15T05:00:23.992Z,34.10
2018-01-15T05:02:51.940Z,29.00
2018-01-15T05:05:19.861Z,31.70
2018-01-15T05:07:47.796Z,31.40
2018-01-15T05:10:15.718Z,29.95
2018-01-15T05:12:43.688Z,28.52
2018-01-15T05:15:11.599Z,26.77
2018-01-15T05:17:39.518Z,28.27
2018-01-15T05:20:07.565Z,29.50
2018-01-15T05:22:35.492Z,32.63
2018-01-15T05:25:03.549Z,32.20
2018-01-15T05:27:31.511Z,29.33
2018-01-15T05:29:59.571Z,30.30
2018-01-15T05:32:27.497Z,30.27
2018-01-15T05:34:55.464Z,31.67
2018-01-15T05:37:23.389Z,28.52
2018-01-15T05:39:51.301Z,29.77
2018-01-15T05:42:19.292Z,27.70
2018-01-15T05:44:47.933Z,30.23
2018-01-15T05:47:15.869Z,26.15
2018-01-15T05:49:43.795Z,29.75
2018-01-15T05:52:11.737Z,32.33
2018-01-15T05:54:39.720Z,35.40
2018-01-15T05:57:07.881Z,32.83
2018-01-15T05:59:35.962Z,30.83
2018-01-15T06:02:03.856Z,30.37
2018-01-15T06:04:31.803Z,27.08
2018-01-15T06:06:59.761Z,28.85
2018-01-15T06:09:27.720Z,31.58
2018-01-15T06:11:55.828Z,29.30
2018-01-15T06:14:23.772Z,27.13
2018-01-15T06:16:51.697Z,30.02
2018-01-15T06:19:19.746Z,29.80
2018-01-15T06:21:47.764Z,30.48
2018-01-15T06:24:15.688Z,30.60
2018-01-15T06:26:43.676Z,30.37
2018-01-15T06:29:11.928Z,29.95
2018-01-15T06:31:39.934Z,29.98
2018-01-15T06:34:07.957Z,28.25
2018-01-15T06:36:35.915Z,31.80
2018-01-15T06:39:03.852Z,34.30
2018-01-15T06:41:31.799Z,34.35
2018-01-15T06:43:59.712Z,29.87
2018-01-15T06:46:27.635Z,37.17
2018-01-15T06:48:55.821Z,31.92
2018-01-15T06:51:23.736Z,29.08
2018-01-15T06:53:51.655Z,33.42
2018-01-15T06:56:19.652Z,34.67
2018-01-15T06:58:47.574Z,30.70
2018-01-15T07:01:15.516Z,29.20
2018-01-15T07:03:43.514Z,29.35
2018-01-15T07:06:11.461Z,31.05
2018-01-15T07:08:39.445Z,31.73
2018-01-15T07:11:07.368Z,30.30
2018-01-15T07:13:35.313Z,29.85
2018-01-15T07:16:03.358Z,33.92
2018-01-15T07:18:31.325Z,30.02
2018-01-15T07:20:59.236Z,26.25
2018-01-15T07:23:27.251Z,26.77
2018-01-15T07:25:55.239Z,29.33
2018-01-15T07:28:23.179Z,27.70
2018-01-15T07:30:51.114Z,28.83
2018-01-15T07:33:19.049Z,31.05
2018-01-15T07:35:46.992Z,29.58
2018-01-15T07:38:14.936Z,28.65
2018-01-15T07:40:42.858Z,30.65
2018-01-15T07:43:10.796Z,30.52
2018-01-15T07:45:38.767Z,27.00
2018-01-15T07:48:06.681Z,31.40
2018-01-15T07:50:34.633Z,32.67
2018-01-15T07:53:02.564Z,30.50
2018-01-15T07:55:30.603Z,31.30
2018-01-15T07:57:58.539Z,29.48
2018-01-15T08:00:27.453Z,32.47
2018-01-15T08:02:55.391Z,32.38
2018-01-15T08:05:23.538Z,29.48
2018-01-15T08:07:51.505Z,29.73
2018-01-15T08:10:19.468Z,31.17
2018-01-15T08:12:47.388Z,31.00
2018-01-15T08:15:15.349Z,31.75
2018-01-15T08:17:43.337Z,27.55
2018-01-15T08:20:11.298Z,31.83
2018-01-15T08:22:39.230Z,30.17
2018-01-15T08:25:07.213Z,26.25
2018-01-15T08:27:35.277Z,29.48
2018-01-15T08:30:03.283Z,33.65
2018-01-15T08:32:31.202Z,33.90
2018-01-15T08:34:59.268Z,29.73
2018-01-15T08:37:27.290Z,27.33
2018-01-15T08:39:55.838Z,32.30
2018-01-15T08:42:23.958Z,28.35
2018-01-15T08:44:51.922Z,30.10
2018-01-15T08:47:20.106Z,31.00
2018-01-15T08:49:48.098Z,23.25
2018-01-15T08:52:16.139Z,30.92
2018-01-15T08:54:44.153Z,28.08
2018-01-15T08:57:12.161Z,28.52
2018-01-15T08:59:40.557Z,26.35
2018-01-15T09:02:08.550Z,27.17
2018-01-15T09:04:36.516Z,28.70
2018-01-15T09:07:05.010Z,30.00
2018-01-15T09:09:33.016Z,28.30
2018-01-15T09:12:00.944Z,26.42
2018-01-15T09:14:28.985Z,26.30
2018-01-15T09:16:56.897Z,29.77
2018-01-15T09:19:25.186Z,27.85
2018-01-15T09:21:53.112Z,28.33
2018-01-15T09:24:21.184Z,27.83
2018-01-15T09:26:49.096Z,28.95
2018-01-15T09:29:17.101Z,27.98
2018-01-15T09:31:45.187Z,30.15
2018-01-15T09:34:13.237Z,25.95
2018-01-15T09:36:41.198Z,29.70
2018-01-15T09:39:09.199Z,26.90
2018-01-15T09:41:38.214Z,31.77
2018-01-15T09:44:06.526Z,30.30
2018-01-15T09:46:35.396Z,27.45
2018-01-15T09:49:03.741Z,26.20
2018-01-15T09:51:31.769Z,28.53
2018-01-15T09:53:59.701Z,25.40
2018-01-15T09:56:27.651Z,28.35
2018-01-15T09:58:55.564Z,28.98
2018-01-15T10:01:23.511Z,28.17
2018-01-15T10:03:51.612Z,25.98
2018-01-15T10:06:19.550Z,31.37
2018-01-15T10:08:47.576Z,29.60
2018-01-15T10:11:16.062Z,28.27
2018-01-15T10:13:43.981Z,27.92
2018-01-15T10:16:11.905Z,28.80
2018-01-15T10:18:40.410Z,26.80
2018-01-15T10:21:08.357Z,26.95
2018-01-15T10:23:36.316Z,28.13
2018-01-15T10:26:04.312Z,25.83
2018-01-15T10:28:32.296Z,27.97
2018-01-15T10:31:00.267Z,29.03
2018-01-15T10:33:28.361Z,25.53
2018-01-15T10:35:56.263Z,26.93
2018-01-15T10:38:24.485Z,22.73
2018-01-15T10:40:52.479Z,25.03
2018-01-15T10:43:20.832Z,24.50
2018-01-15T10:45:48.857Z,27.00
2018-01-15T10:48:17.746Z,24.60
2018-01-15T10:50:45.662Z,23.80
2018-01-15T10:53:13.589Z,27.93
2018-01-15T10:55:41.530Z,24.63
2018-01-15T10:58:09.573Z,22.00
2018-01-15T11:00:43.309Z,24.43
2018-01-15T11:03:11.258Z,24.50
2018-01-15T11:05:39.217Z,23.07
2018-01-15T11:08:07.314Z,22.90
2018-01-15T11:10:35.255Z,22.30
2018-01-15T11:13:03.182Z,25.70
2018-01-15T11:15:31.323Z,24.63
2018-01-15T11:18:01.369Z,25.27
2018-01-15T11:20:29.306Z,23.33
2018-01-15T11:22:57.285Z,21.70
2018-01-15T11:25:25.263Z,23.23
2018-01-15T11:27:53.338Z,23.87
2018-01-15T11:30:21.334Z,18.73
2018-01-15T11:32:49.283Z,22.53
2018-01-15T11:35:17.220Z,19.20
2018-01-15T11:37:45.122Z,22.70
2018-01-15T11:40:13.084Z,24.03
2018-01-15T11:42:41.024Z,22.23
2018-01-15T11:45:08.925Z,28.37
2018-01-15T11:47:36.837Z,20.47
2018-01-15T11:50:05.073Z,20.50
2018-01-15T11:52:33.086Z,19.40
2018-01-15T11:55:01.136Z,21.03
2018-01-15T11:57:29.205Z,21.27
2018-01-15T11:59:57.201Z,24.63
2018-01-15T12:02:25.193Z,22.60
2018-01-15T12:04:53.810Z,23.20
2018-01-15T12:07:21.736Z,22.20
2018-01-15T12:09:49.737Z,19.67
2018-01-15T12:12:17.668Z,20.23
2018-01-15T12:14:45.604Z,23.80
2018-01-15T12:17:13.544Z,23.23
2018-01-15T12:19:41.644Z,20.40
2018-01-15T12:22:11.699Z,19.43
2018-01-15T12:24:39.663Z,18.93
2018-01-15T12:27:07.561Z,22.70
2018-01-15T12:29:35.632Z,20.23
2018-01-15T12:32:03.748Z,20.57
2018-01-15T12:34:31.780Z,18.37
2018-01-15T12:36:59.699Z,18.43
2018-01-15T12:39:27.748Z,22.60
2018-01-15T12:41:55.702Z,24.37
2018-01-15T12:44:24.168Z,19.13
2018-01-15T12:46:52.358Z,18.63
2018-01-15T12:49:20.312Z,23.67
2018-01-15T12:51:48.179Z,20.50
2018-01-15T12:54:16.169Z,21.00
2018-01-15T12:56:44.088Z,20.63
2018-01-15T12:59:12.021Z,19.40
2018-01-15T13:01:40.131Z,15.90
2018-01-15T13:04:10.970Z,22.03
2018-01-15T13:07:00.445Z,18.20
2018-01-15T13:09:28.500Z,19.90
2018-01-15T13:11:56.415Z,19.53
2018-01-15T13:14:25.210Z,17.73
2018-01-15T13:16:53.307Z,24.13
2018-01-15T13:19:21.216Z,17.23
2018-01-15T13:21:49.118Z,24.93
2018-01-15T13:24:17.132Z,18.30
2018-01-15T13:26:45.105Z,20.00
2018-01-15T13:29:13.042Z,19.97
2018-01-15T13:31:41.000Z,16.53
2018-01-15T13:34:09.000Z,19.27
2018-01-15T13:36:37.002Z,21.23
2018-01-15T13:39:05.026Z,18.03
2018-01-15T13:41:33.457Z,18.47
2018-01-15T13:44:02.990Z,16.80
2018-01-15T13:46:31.040Z,17.97
2018-01-15T13:48:58.939Z,17.33
2018-01-15T13:51:27.615Z,15.70
2018-01-15T13:53:55.621Z,18.03
2018-01-15T13:56:23.995Z,17.80
2018-01-15T13:58:52.011Z,20.00
2018-01-15T14:01:20.011Z,19.17
2018-01-15T14:03:48.051Z,18.33
2018-01-15T14:06:16.097Z,18.40
2018-01-15T14:08:44.233Z,16.50
2018-01-15T14:11:12.450Z,17.97
2018-01-15T14:13:41.319Z,20.30
2018-01-15T14:16:09.240Z,19.60
2018-01-15T14:18:37.203Z,18.33
2018-01-15T14:21:05.374Z,18.40
2018-01-15T14:23:33.563Z,21.90
2018-01-15T14:26:01.601Z,19.93
2018-01-15T14:28:29.743Z,17.50
2018-01-15T14:30:57.709Z,19.03
2018-01-15T14:33:25.612Z,19.47
2018-01-15T14:35:53.558Z,18.77
2018-01-15T14:38:21.505Z,20.40
2018-01-15T14:40:49.415Z,16.73
2018-01-15T14:43:17.333Z,18.83
2018-01-15T14:45:45.929Z,20.37
2018-01-15T14:48:13.920Z,18.93
2018-01-15T14:50:41.871Z,18.07
2018-01-15T14:53:09.777Z,19.93
2018-01-15T14:55:38.014Z,19.70
2018-01-15T14:58:05.957Z,19.20
2018-01-15T15:00:33.889Z,19.03
2018-01-15T15:03:02.259Z,19.57
2018-01-15T15:05:31.008Z,18.60
2018-01-15T15:07:58.988Z,17.30
2018-01-15T15:10:27.106Z,20.17
2018-01-15T15:12:55.007Z,19.73
2018-01-15T15:15:22.997Z,23.07
2018-01-15T15:17:50.945Z,22.80
2018-01-15T15:20:18.936Z,20.77
2018-01-15T15:22:46.857Z,19.83
2018-01-15T15:25:14.816Z,17.67
2018-01-15T15:27:42.744Z,17.43
2018-01-15T15:30:10.710Z,21.60
2018-01-15T15:32:38.717Z,20.13
2018-01-15T15:35:06.669Z,18.63
2018-01-15T15:37:34.616Z,20.13
2018-01-15T15:40:02.573Z,21.90
2018-01-15T15:42:30.537Z,23.17
2018-01-15T15:44:58.460Z,20.17
2018-01-15T15:47:26.456Z,19.03
2018-01-15T15:49:54.400Z,18.60
2018-01-15T15:52:22.346Z,20.90
2018-01-15T15:54:50.270Z,18.37
2018-01-15T15:57:18.381Z,16.50
2018-01-15T15:59:46.346Z,20.00
2018-01-15T16:02:14.270Z,24.03
2018-01-15T16:04:42.652Z,17.53
2018-01-15T16:07:10.603Z,17.33
2018-01-15T16:09:38.516Z,19.20
2018-01-15T16:12:06.653Z,21.03
2018-01-15T16:14:34.684Z,18.07
2018-01-15T16:17:02.658Z,19.57
2018-01-15T16:19:30.568Z,18.03
2018-01-15T16:22:10.346Z,20.67
2018-01-15T16:24:38.277Z,18.40
2018-01-15T16:27:06.179Z,18.10
2018-01-15T16:29:34.113Z,17.40
2018-01-15T16:32:02.220Z,19.27
2018-01-15T16:34:30.132Z,18.00
2018-01-15T16:36:58.074Z,21.30
2018-01-15T16:39:25.999Z,15.83
2018-01-15T16:41:53.953Z,17.10
2018-01-15T16:44:21.862Z,16.83
2018-01-15T16:46:49.780Z,17.20
2018-01-15T16:49:17.691Z,17.10
2018-01-15T16:51:45.600Z,15.53
2018-01-15T16:54:13.536Z,19.40
2018-01-15T16:56:41.448Z,16.77
2018-01-15T16:59:09.559Z,16.90
2018-01-15T17:01:37.484Z,17.23
2018-01-15T17:04:05.438Z,14.63
2018-01-15T17:06:33.365Z,17.80
2018-01-15T17:09:01.309Z,17.10
2018-01-15T17:11:29.296Z,18.40
2018-01-15T17:13:57.215Z,17.70
2018-01-15T17:16:25.238Z,19.80
2018-01-15T17:18:53.152Z,16.10
2018-01-15T17:21:21.096Z,14.90
2018-01-15T17:23:48.988Z,18.60
2018-01-15T17:26:17.118Z,18.27
2018-01-15T17:28:45.030Z,17.60
2018-01-15T17:31:12.953Z,16.27
2018-01-15T17:33:40.870Z,18.33
2018-01-15T17:36:08.792Z,20.90
2018-01-15T17:38:36.740Z,16.90
2018-01-15T17:41:04.640Z,17.10
2018-01-15T17:43:32.627Z,18.60
2018-01-15T17:46:00.564Z,15.37
2018-01-15T17:48:28.496Z,13.90
2018-01-15T17:50:56.403Z,16.60
2018-01-15T17:53:24.380Z,15.40
2018-01-15T17:55:52.323Z,18.70
2018-01-15T17:58:20.425Z,16.33
2018-01-15T18:00:48.352Z,14.97
2018-01-15T18:03:16.300Z,16.20
2018-01-15T18:05:44.265Z,16.30
2018-01-15T18:08:12.184Z,18.43
2018-01-15T18:10:40.150Z,18.23
2018-01-15T18:13:08.413Z,17.77
2018-01-15T18:15:37.264Z,18.73
2018-01-15T18:18:05.199Z,15.93
2018-01-15T18:20:33.181Z,22.50
2018-01-15T18:23:02.090Z,17.27
2018-01-15T18:25:30.114Z,17.83
2018-01-15T18:27:58.238Z,17.70
2018-01-15T18:30:26.242Z,15.73
2018-01-15T18:32:54.196Z,17.70
2018-01-15T18:35:22.127Z,16.80
2018-01-15T18:37:50.248Z,18.67
2018-01-15T18:40:18.217Z,15.53
2018-01-15T18:42:46.160Z,19.90
2018-01-15T18:45:14.285Z,16.97
2018-01-15T18:47:42.199Z,16.70
2018-01-15T18:50:10.266Z,16.17
2018-01-15T18:52:38.343Z,21.17
2018-01-15T18:55:06.251Z,18.97
2018-01-15T18:57:34.533Z,17.07
2018-01-15T19:00:02.493Z,16.73
2018-01-15T19:02:30.434Z,17.03
2018-01-15T19:04:58.372Z,15.30
2018-01-15T19:07:26.326Z,16.70
2018-01-15T19:09:54.355Z,18.03
2018-01-15T19:12:22.879Z,17.77
2018-01-15T19:14:50.812Z,15.77
2018-01-15T19:17:18.797Z,16.20
2018-01-15T19:19:46.740Z,17.93
2018-01-15T19:22:14.736Z,16.10
2018-01-15T19:24:42.675Z,15.73
2018-01-15T19:27:10.647Z,16.93
2018-01-15T19:29:38.544Z,14.13
2018-01-15T19:32:06.461Z,21.80
2018-01-15T19:37:33.002Z,17.00
2018-01-15T19:40:00.953Z,20.93
2018-01-15T19:42:28.855Z,17.23
2018-01-15T19:45:02.458Z,13.43
2018-01-15T19:47:35.824Z,16.47
2018-01-15T19:50:09.318Z,15.60
2018-01-15T19:52:43.006Z,14.60
2018-01-15T19:55:16.664Z,15.83
2018-01-15T19:57:50.280Z,16.73
2018-01-15T20:00:23.759Z,15.27
2018-01-15T20:02:57.457Z,15.00
2018-01-15T20:05:31.143Z,16.30
2018-01-15T20:08:04.792Z,16.73
2018-01-15T20:10:38.440Z,17.17
2018-01-15T20:13:06.383Z,15.73
2018-01-15T20:15:34.341Z,15.10
2018-01-15T20:18:02.241Z,18.50
2018-01-15T20:20:30.254Z,17.43
2018-01-15T20:22:58.183Z,18.13
2018-01-15T20:25:26.140Z,14.93
2018-01-15T20:27:54.049Z,16.47
2018-01-15T20:30:21.984Z,14.60
2018-01-15T20:32:49.884Z,15.90
2018-01-15T20:35:17.922Z,13.90
2018-01-15T20:37:45.847Z,19.03
2018-01-15T20:40:13.763Z,16.83
2018-01-15T20:42:41.674Z,15.30
2018-01-15T20:45:09.653Z,15.37
2018-01-15T20:47:38.281Z,20.13
2018-01-15T20:50:06.197Z,14.90
2018-01-15T20:52:34.125Z,15.90
2018-01-15T20:55:02.091Z,16.07
2018-01-15T20:57:30.032Z,17.00
2018-01-15T20:59:58.021Z,15.03
2018-01-15T21:02:25.951Z,16.60
2018-01-15T21:04:53.952Z,19.77
2018-01-15T21:07:21.888Z,17.23
2018-01-15T21:09:49.803Z,15.27
2018-01-15T21:12:17.746Z,17.03
2018-01-15T21:14:46.205Z,16.93
2018-01-15T21:17:14.299Z,18.10
2018-01-15T21:19:42.328Z,17.10
2018-01-15T21:22:10.251Z,16.03
2018-01-15T21:24:38.178Z,19.00
2018-01-15T21:27:06.153Z,14.50
2018-01-15T21:29:34.071Z,15.53
2018-01-15T21:32:02.050Z,17.33
2018-01-15T21:34:30.645Z,17.33
2018-01-15T21:36:58.700Z,19.73
2018-01-15T21:39:26.701Z,17.57
2018-01-15T21:41:57.818Z,15.77
2018-01-15T21:44:26.612Z,17.50
2018-01-15T21:46:55.580Z,18.40
2018-01-15T21:49:23.592Z,20.43
2018-01-15T21:51:53.773Z,19.07
2018-01-15T21:54:22.481Z,21.30
2018-01-15T21:56:50.980Z,15.37
2018-01-15T21:59:20.285Z,18.50
2018-01-15T22:01:49.308Z,16.60
2018-01-15T22:04:17.863Z,22.00
2018-01-15T22:06:45.885Z,19.17
2018-01-15T22:09:13.986Z,18.70
2018-01-15T22:11:42.569Z,21.87
2018-01-15T22:14:10.800Z,19.10
2018-01-15T22:16:38.921Z,17.40
2018-01-15T22:19:06.834Z,17.87
2018-01-15T22:21:34.804Z,20.10
2018-01-15T22:24:02.847Z,17.73
2018-01-15T22:26:31.726Z,21.07
2018-01-15T22:29:00.311Z,19.23
2018-01-15T22:31:28.581Z,18.10
2018-01-15T22:33:56.652Z,19.67
2018-01-15T22:36:24.598Z,17.63
2018-01-15T22:38:52.583Z,22.27
2018-01-15T22:41:20.512Z,19.53
2018-01-15T22:43:48.483Z,19.30
2018-01-15T22:46:16.392Z,18.93
2018-01-15T22:48:44.321Z,19.67
2018-01-15T22:51:12.261Z,20.13
2018-01-15T22:53:40.232Z,23.23
2018-01-15T22:56:08.274Z,20.63
2018-01-15T22:58:36.750Z,23.27
2018-01-15T23:01:04.679Z,21.87
2018-01-15T23:03:32.625Z,20.57
2018-01-15T23:06:00.968Z,22.17
2018-01-15T23:08:28.963Z,20.90
2018-01-15T23:10:56.896Z,24.50
2018-01-15T23:13:24.808Z,24.20
2018-01-15T23:15:52.703Z,24.97
2018-01-15T23:18:21.360Z,24.10
2018-01-15T23:20:49.344Z,21.77
2018-01-15T23:23:17.376Z,22.33
2018-01-15T23:25:45.394Z,26.07
2018-01-15T23:28:13.372Z,25.77
2018-01-15T23:30:41.413Z,24.50
2018-01-15T23:33:09.971Z,26.23
2018-01-15T23:35:37.892Z,28.30
2018-01-15T23:38:05.861Z,26.00
2018-01-15T23:40:33.833Z,22.93
2018-01-15T23:43:01.793Z,26.30
2018-01-15T23:45:29.768Z,25.40
2018-01-15T23:47:57.942Z,28.27
2018-01-15T23:50:25.834Z,23.73
2018-01-15T23:52:53.807Z,25.10
2018-01-15T23:55:21.713Z,28.13
2018-01-15T23:57:49.717Z,30.12
